Grand Rapids, MI (49525)

8:09 AM EDT on May 23, 2015 (GMT -0400)
Robinette Orchards | | Change Station
CLOSE
Current Station
Personal Weather Station
Location: Grand Rapids, MI
Elevation: 830 ft
Nearby Weather Stations

Elev 830 ft 43.03 °N, 85.59 °W | Updated 14 seconds ago

Clear
Clear
59.4 °F
Feels Like 59.4 °F
N
0.4
Wind Variable Wind from East
Gusts 2.5 mph

Today
High -- | Low -- °F
--% Chance of Precip.
Yesterday
High -- | Low -- °F
Precip. -- in
6:11 AM 9:06 PM
Waxing Crescent, 29% visible
Pressure 30.38 in
Visibility 10.0 miles
Clouds Few 20000 ft
Dew Point 36 °F
Humidity 41%
Rainfall 0.00 in
Snow Depth Not available.
UV 1 out of 12
Pollen 9.90 out of 12
Air Quality Not available.
Flu Activity Sporadic
METAR KGRR 231153Z 16004KT 10SM FEW200 09/04 A3037 RMK AO2 SLP285 T00940039 10094 20044 53017

More Conditions Fewer Conditions

Pressure 30.38 in
Visibility 10.0 miles
Clouds Few 20000 ft
Dew Point 36 °F
Humidity 41%
Rainfall 0.00 in
Snow Depth Not available.
UV 1 out of 12
Pollen 9.90 out of 12
Air Quality Not available.
Flu Activity Sporadic
METAR KGRR 231153Z 16004KT 10SM FEW200 09/04 A3037 RMK AO2 SLP285 T00940039 10094 20044 53017

More Conditions Fewer Conditions

10-Day Weather Forecast

Almanac

Astronomy

May. 23, 2015 Rise Set
Actual Time
Civil Twilight
Nautical Twilight
Astronomical Twilight
Moon
Length of Visible Light
Length of Day
Tomorrow will be .
, % of the Moon is Illuminated

Today's Extremes

State Highs State Lows

Community

WunderPhotos

Upload Photos

1,823,439 photos uploaded!

WunderBlogs® & News

Nearby

Air Quality

  Air Quality AQ Index Pollutant
Not available.

Snow Depth

Station Depth Elevation

Earthquake Activity

City Distance Mag. Time & Date
Minimum magnitude displayed is 2.5.

Coastal Water Temperatures

Place Temperature

Stations

Nearby Weather Stations

Station Location Temp. Windchill Dew Point Humidity Wind Precip. Elev Updated Type